Ana Sayfa
METAR-TAF:

METAR-TAF

Havaalanları :

Municipal

Tunica, Mississipi, Amerika Birleşik Devletleri

Enlem: 34-41-06N, Boylam: 090-20-52W, yükseklik: 59 m

Güncel hava durumu gözlemi

Rapor saat 13:15 UTC de 22 dakika önce yapıldı.
Rüzgar güney/güneydoğudan 5 kt
Sıcaklık 21°C
Nem 100%
Basınç 1013 hPa
Görüş mesafesi: 11.3 km
8500 ft yükseklikte parçalı çok bulutlu
12000 ft yükseklikte parçalı çok bulutlu
hafif yağmur, civarda gök gürültülü fırtına

METAR: KUTA 231315Z AUTO 16005KT 7SM -RA VCTS BKN085 BKN120 21/21 A2992 RMK AO2 RAB1259 TSB1253E1308 P0000 T02070207 $

Saat: 08:37 (13:37 UTC)


TAF: eksik

4.000'den fazla havaalanı için hava durumu gözlemleri ve tahminleri (METAR ve TAF raporları).

Kullanılabilir istasyonlar harita üzerinde sarı ve kırmızı noktalarla gösterilir.

İstasyonun adını görmek için fareyi noktanın üzerinde gezdirin.

Sonrasında hava gözlem ve tahminlerini görmek için tıklayın.

Haritayı değiştirmek için: yaklaştırmak için siyah artı işaretli yeşil düğmeye ve uzaklaştırmak için de eksi işaretli düğmeye hızla tıklayın; bitişik haritalar için yeşil okları kullanın.


METAR-TAF: